Amherst, South Dakota
Current Conditions -  °F | °C
As of 5:53 AM on Friday 31 Oct 2014 (Local Time) from KABR Reporting Station
Clear Clear  
Wind Chill:   Ceiling: Unl
Heat Index: 15°   Visibility: 10mi
Dew Point: 11°   Wind: 6mph
Humidity: 84%   Direction: 350°N
Pressure: 30.6"   Gusts: NA
Location:  45.74°N, 97.92°W
Report Text: KABR 311053Z AUTO 35005KT 10SM CLR M09/M12 A3060 RMK AO2 SLP384 T10941117
Loading
Personal Weather Stations






























Interactive Weather Map
Tropical Storm Tracking
New forecast layout! Learn more

10-Day Weather Forecast

Advertisements
Track Severe Weather on mobile